Time,TemperatureF,DewpointF,PressureIn,WindDirection,WindDirectionDegrees,WindSpeedMPH,WindSpeedGustMPH,Humidity,HourlyPrecipIn,Conditions,Clouds,dailyrainin,SolarRadiationWatts/m^2,SoftwareType,DateUTC
2013-05-12 00:01:00,49.0,47.6,29.79,West,276,8.0,17.0,95,0.04,,,0.20,0,Wunderground v.1.15,2013-05-11 22:01:00,
2013-05-12 00:06:00,48.9,47.5,29.79,WSW,248,8.0,17.0,95,0.00,,,0.00,0,Wunderground v.1.15,2013-05-11 22:06:00,
2013-05-12 00:15:00,48.6,47.0,29.79,WSW,253,6.0,8.0,94,0.00,,,0.01,0,Wunderground v.1.15,2013-05-11 22:15:00,
2013-05-12 00:21:00,48.4,46.8,29.79,WSW,252,6.0,11.0,94,0.00,,,0.01,0,Wunderground v.1.15,2013-05-11 22:21:00,
2013-05-12 00:31:00,48.1,46.5,29.78,SSW,211,5.0,7.0,94,0.04,,,0.02,0,Wunderground v.1.15,2013-05-11 22:31:00,
2013-05-12 00:41:00,48.0,46.4,29.79,WSW,237,5.0,6.0,94,0.00,,,0.02,0,Wunderground v.1.15,2013-05-11 22:41:00,
2013-05-12 00:51:00,47.8,46.2,29.79,WSW,256,6.0,6.0,94,0.00,,,0.02,0,Wunderground v.1.15,2013-05-11 22:51:00,
2013-05-12 01:01:00,47.7,46.1,29.78,SSW,203,6.0,6.0,94,0.00,,,0.02,0,Wunderground v.1.15,2013-05-11 23:01:00,
2013-05-12 01:06:00,47.5,45.9,29.78,SSW,206,6.0,6.0,94,0.00,,,0.02,0,Wunderground v.1.15,2013-05-11 23:06:00,
2013-05-12 01:11:00,47.4,45.8,29.79,West,262,6.0,6.0,94,0.00,,,0.02,0,Wunderground v.1.15,2013-05-11 23:11:00,
2013-05-12 01:21:00,47.2,45.3,29.79,SW,234,5.0,5.0,93,0.00,,,0.02,0,Wunderground v.1.15,2013-05-11 23:21:00,
2013-05-12 01:31:00,47.1,45.2,29.79,SW,229,6.0,6.0,93,0.00,,,0.02,0,Wunderground v.1.15,2013-05-11 23:31:00,
2013-05-12 01:41:00,47.1,45.2,29.79,SW,236,6.0,8.0,93,0.00,,,0.02,0,Wunderground v.1.15,2013-05-11 23:41:00,
2013-05-12 01:46:00,46.9,45.0,29.79,WSW,257,6.0,10.0,93,0.00,,,0.02,0,Wunderground v.1.15,2013-05-11 23:46:00,
2013-05-12 01:55:00,46.9,45.0,29.79,WSW,257,6.0,10.0,93,0.00,,,0.02,0,Wunderground v.1.15,2013-05-11 23:55:00,
2013-05-12 02:00:00,46.9,45.0,29.79,SW,217,5.0,11.0,93,0.00,,,0.02,0,Wunderground v.1.15,2013-05-12 00:00:00,
2013-05-12 02:06:00,46.9,45.0,29.79,SW,236,5.0,11.0,93,0.00,,,0.02,0,Wunderground v.1.15,2013-05-12 00:06:00,
2013-05-12 02:11:00,46.9,45.0,29.79,SW,215,3.0,3.0,93,0.00,,,0.02,0,Wunderground v.1.15,2013-05-12 00:11:00,
2013-05-12 02:21:00,47.1,45.5,29.78,SW,220,2.0,3.0,94,0.00,,,0.02,0,Wunderground v.1.15,2013-05-12 00:21:00,
2013-05-12 02:26:00,46.9,45.3,29.78,SW,222,2.0,3.0,94,0.00,,,0.02,0,Wunderground v.1.15,2013-05-12 00:26:00,
2013-05-12 02:31:00,46.9,45.3,29.78,SW,217,3.0,3.0,94,0.00,,,0.02,0,Wunderground v.1.15,2013-05-12 00:31:00,
2013-05-12 02:41:00,46.9,45.3,29.78,SW,236,2.0,2.0,94,0.00,,,0.02,0,Wunderground v.1.15,2013-05-12 00:41:00,
2013-05-12 02:51:00,46.9,45.3,29.78,WSW,247,2.0,2.0,94,0.00,,,0.02,0,Wunderground v.1.15,2013-05-12 00:51:00,
2013-05-12 03:01:00,47.1,45.5,29.78,WSW,247,0.0,1.0,94,0.00,,,0.02,0,Wunderground v.1.15,2013-05-12 01:01:00,
2013-05-12 03:06:00,46.9,45.3,29.78,WSW,245,1.0,2.0,94,0.00,,,0.02,0,Wunderground v.1.15,2013-05-12 01:06:00,
2013-05-12 03:11:00,46.9,45.3,29.78,WSW,239,2.0,2.0,94,0.00,,,0.02,0,Wunderground v.1.15,2013-05-12 01:11:00,
2013-05-12 03:21:00,46.9,45.3,29.78,WSW,238,1.0,1.0,94,0.00,,,0.02,0,Wunderground v.1.15,2013-05-12 01:21:00,
2013-05-12 03:26:00,46.9,45.3,29.78,WSW,238,2.0,2.0,94,0.00,,,0.02,0,Wunderground v.1.15,2013-05-12 01:26:00,
2013-05-12 03:35:00,46.9,45.3,29.78,SW,236,1.0,4.0,94,0.00,,,0.02,0,Wunderground v.1.15,2013-05-12 01:35:00,
2013-05-12 03:41:00,47.1,45.5,29.79,SW,236,2.0,3.0,94,0.00,,,0.02,0,Wunderground v.1.15,2013-05-12 01:41:00,
2013-05-12 03:51:00,47.2,45.6,29.79,WNW,283,1.0,3.0,94,0.00,,,0.02,0,Wunderground v.1.15,2013-05-12 01:51:00,
2013-05-12 04:01:00,47.2,45.6,29.79,WNW,290,6.0,10.0,94,0.00,,,0.02,0,Wunderground v.1.15,2013-05-12 02:01:00,
2013-05-12 04:06:00,46.8,45.2,29.79,West,264,5.0,10.0,94,0.00,,,0.02,0,Wunderground v.1.15,2013-05-12 02:06:00,
2013-05-12 04:11:00,46.5,44.6,29.79,West,280,6.0,6.0,93,0.00,,,0.02,0,Wunderground v.1.15,2013-05-12 02:11:00,
2013-05-12 04:21:00,45.9,44.0,29.79,West,266,6.0,6.0,93,0.00,,,0.02,0,Wunderground v.1.15,2013-05-12 02:21:00,
2013-05-12 04:26:00,45.8,43.9,29.79,NW,317,5.0,6.0,93,0.00,,,0.02,0,Wunderground v.1.15,2013-05-12 02:26:00,
2013-05-12 04:35:00,45.5,43.6,29.80,NW,315,4.0,4.0,93,0.00,,,0.02,0,Wunderground v.1.15,2013-05-12 02:35:00,
2013-05-12 04:41:00,45.5,43.9,29.80,West,276,4.0,6.0,94,0.00,,,0.02,0,Wunderground v.1.15,2013-05-12 02:41:00,
2013-05-12 04:51:00,45.6,44.0,29.80,WSW,246,4.0,4.0,94,0.00,,,0.02,0,Wunderground v.1.15,2013-05-12 02:51:00,
2013-05-12 05:00:00,45.5,43.9,29.80,WNW,290,5.0,5.0,94,0.00,,,0.02,0,Wunderground v.1.15,2013-05-12 03:00:00,
2013-05-12 05:06:00,45.3,43.7,29.80,WNW,284,6.0,6.0,94,0.00,,,0.02,0,Wunderground v.1.15,2013-05-12 03:06:00,
2013-05-12 05:11:00,45.2,43.6,29.80,SW,217,5.0,5.0,94,0.00,,,0.02,0,Wunderground v.1.15,2013-05-12 03:11:00,
2013-05-12 05:21:00,45.0,43.4,29.80,West,280,5.0,10.0,94,0.00,,,0.03,0,Wunderground v.1.15,2013-05-12 03:21:00,
2013-05-12 05:31:00,44.7,43.1,29.80,WNW,293,4.0,4.0,94,0.00,,,0.03,0,Wunderground v.1.15,2013-05-12 03:31:00,
2013-05-12 05:41:00,44.7,43.1,29.80,West,276,3.0,3.0,94,0.00,,,0.03,0,Wunderground v.1.15,2013-05-12 03:41:00,
2013-05-12 05:51:00,44.7,43.1,29.80,West,272,2.0,2.0,94,0.00,,,0.03,0,Wunderground v.1.15,2013-05-12 03:51:00,
2013-05-12 06:00:00,44.7,43.1,29.81,West,272,0.0,0.0,94,0.00,,,0.03,5,Wunderground v.1.15,2013-05-12 04:00:00,
2013-05-12 06:06:00,44.7,43.4,29.81,West,272,0.0,0.0,95,0.00,,,0.03,7,Wunderground v.1.15,2013-05-12 04:06:00,
2013-05-12 06:11:00,44.7,43.4,29.81,West,272,0.0,0.0,95,0.00,,,0.03,9,Wunderground v.1.15,2013-05-12 04:11:00,
2013-05-12 06:16:00,44.7,43.4,29.81,West,272,1.0,2.0,95,0.00,,,0.03,9,Wunderground v.1.15,2013-05-12 04:16:00,
2013-05-12 06:21:00,44.7,43.4,29.81,West,272,2.0,2.0,95,0.00,,,0.03,11,Wunderground v.1.15,2013-05-12 04:21:00,
2013-05-12 06:26:00,44.7,43.4,29.81,West,272,1.0,2.0,95,0.00,,,0.03,12,Wunderground v.1.15,2013-05-12 04:26:00,
2013-05-12 06:31:00,44.7,43.4,29.81,West,271,1.0,1.0,95,0.00,,,0.03,14,Wunderground v.1.15,2013-05-12 04:31:00,
2013-05-12 06:36:00,44.7,43.4,29.82,West,281,3.0,5.0,95,0.00,,,0.03,14,Wunderground v.1.15,2013-05-12 04:36:00,
2013-05-12 06:46:00,44.7,43.4,29.82,West,277,4.0,4.0,95,0.00,,,0.03,11,Wunderground v.1.15,2013-05-12 04:46:00,
2013-05-12 06:51:00,44.9,43.6,29.82,West,274,3.0,3.0,95,0.00,,,0.03,11,Wunderground v.1.15,2013-05-12 04:51:00,
2013-05-12 06:56:00,44.9,43.6,29.82,West,271,3.0,3.0,95,0.00,,,0.03,11,Wunderground v.1.15,2013-05-12 04:56:00,
2013-05-12 07:06:00,45.2,43.9,29.83,West,276,3.0,11.0,95,0.00,,,0.03,28,Wunderground v.1.15,2013-05-12 05:06:00,
2013-05-12 07:16:00,45.3,44.0,29.83,West,276,4.0,5.0,95,0.00,,,0.03,56,Wunderground v.1.15,2013-05-12 05:16:00,
2013-05-12 07:21:00,45.3,44.0,29.83,West,266,4.0,4.0,95,0.00,,,0.03,58,Wunderground v.1.15,2013-05-12 05:21:00,
2013-05-12 07:31:00,45.5,44.2,29.83,West,280,5.0,5.0,95,0.00,,,0.03,54,Wunderground v.1.15,2013-05-12 05:31:00,
2013-05-12 07:41:00,45.6,44.0,29.84,WNW,289,5.0,7.0,94,0.00,,,0.03,95,Wunderground v.1.15,2013-05-12 05:41:00,
2013-05-12 07:51:00,45.6,44.0,29.84,West,279,3.0,3.0,94,0.00,,,0.03,120,Wunderground v.1.15,2013-05-12 05:51:00,
2013-05-12 08:01:00,46.1,44.5,29.84,West,261,3.0,3.0,94,0.00,,,0.03,123,Wunderground v.1.15,2013-05-12 06:01:00,
2013-05-12 08:11:00,46.3,44.4,29.84,NNW,338,4.0,6.0,93,0.00,,,0.03,253,Wunderground v.1.15,2013-05-12 06:11:00,
2013-05-12 08:21:00,47.1,45.2,29.85,NNW,330,1.0,2.0,93,0.00,,,0.03,325,Wunderground v.1.15,2013-05-12 06:21:00,
2013-05-12 08:31:00,47.8,45.3,29.85,NW,323,3.0,4.0,91,0.00,,,0.03,376,Wunderground v.1.15,2013-05-12 06:31:00,
2013-05-12 08:36:00,48.3,45.2,29.85,West,275,5.0,5.0,89,0.00,,,0.03,504,Wunderground v.1.15,2013-05-12 06:36:00,
2013-05-12 08:41:00,48.9,45.2,29.85,West,275,7.0,7.0,87,0.00,,,0.03,91,Wunderground v.1.15,2013-05-12 06:41:00,
2013-05-12 08:51:00,48.9,44.9,29.85,WSW,257,5.0,5.0,86,0.00,,,0.04,387,Wunderground v.1.15,2013-05-12 06:51:00,
2013-05-12 09:01:00,50.2,45.2,29.86,NW,307,4.0,4.0,83,0.00,,,0.04,492,Wunderground v.1.15,2013-05-12 07:01:00,
2013-05-12 09:06:00,50.5,44.9,29.86,NNW,341,5.0,5.0,81,0.00,,,0.04,496,Wunderground v.1.15,2013-05-12 07:06:00,
2013-05-12 09:11:00,50.9,45.3,29.86,NNW,334,5.0,5.0,81,0.00,,,0.04,635,Wunderground v.1.15,2013-05-12 07:11:00,
2013-05-12 09:21:00,50.9,44.6,29.87,NNW,333,4.0,6.0,79,0.00,,,0.04,237,Wunderground v.1.15,2013-05-12 07:21:00,
2013-05-12 09:31:00,50.0,43.7,29.87,West,277,5.0,8.0,79,0.00,,,0.04,107,Wunderground v.1.15,2013-05-12 07:31:00,
2013-05-12 09:41:00,50.8,44.9,29.87,West,278,6.0,12.0,80,0.00,,,0.04,563,Wunderground v.1.15,2013-05-12 07:41:00,
2013-05-12 09:51:00,52.6,44.5,29.88,WSW,251,6.0,6.0,74,0.00,,,0.04,171,Wunderground v.1.15,2013-05-12 07:51:00,
2013-05-12 10:01:00,51.1,43.1,29.88,North,356,8.0,8.0,74,0.00,,,0.04,239,Wunderground v.1.15,2013-05-12 08:01:00,
2013-05-12 10:06:00,50.6,43.3,29.89,WSW,248,8.0,8.0,76,0.00,,,0.04,258,Wunderground v.1.15,2013-05-12 08:06:00,
2013-05-12 10:11:00,50.5,43.6,29.89,WSW,258,6.0,8.0,77,0.00,,,0.04,705,Wunderground v.1.15,2013-05-12 08:11:00,
2013-05-12 10:21:00,52.0,44.7,29.89,SW,234,8.0,8.0,76,0.00,,,0.04,701,Wunderground v.1.15,2013-05-12 08:21:00,
2013-05-12 10:31:00,53.2,44.0,29.89,WNW,292,8.0,8.0,71,0.00,,,0.04,315,Wunderground v.1.15,2013-05-12 08:31:00,
2013-05-12 10:36:00,52.9,43.7,29.89,NNW,333,9.0,9.0,71,0.00,,,0.04,315,Wunderground v.1.15,2013-05-12 08:36:00,
2013-05-12 10:41:00,52.6,43.5,29.89,West,276,6.0,7.0,71,0.00,,,0.04,267,Wunderground v.1.15,2013-05-12 08:41:00,
2013-05-12 10:51:00,51.5,43.1,29.90,West,264,6.0,6.0,73,0.00,,,0.04,244,Wunderground v.1.15,2013-05-12 08:51:00,
2013-05-12 11:01:00,51.2,43.2,29.90,WNW,289,7.0,15.0,74,0.00,,,0.04,443,Wunderground v.1.15,2013-05-12 09:01:00,
2013-05-12 11:06:00,51.5,43.8,29.90,NNW,334,7.0,15.0,75,0.00,,,0.04,490,Wunderground v.1.15,2013-05-12 09:06:00,
2013-05-12 11:11:00,51.8,43.8,29.90,WNW,293,6.0,6.0,74,0.00,,,0.04,227,Wunderground v.1.15,2013-05-12 09:11:00,
2013-05-12 11:21:00,51.8,43.4,29.91,WNW,302,7.0,7.0,73,0.00,,,0.04,338,Wunderground v.1.15,2013-05-12 09:21:00,
2013-05-12 11:31:00,52.3,43.9,29.91,West,260,7.0,9.0,73,0.00,,,0.04,526,Wunderground v.1.15,2013-05-12 09:31:00,
2013-05-12 11:41:00,53.0,41.9,29.90,WNW,285,6.0,6.0,66,0.00,,,0.04,452,Wunderground v.1.15,2013-05-12 09:41:00,
2013-05-12 11:46:00,53.3,42.2,29.91,WSW,253,5.0,6.0,66,0.00,,,0.04,403,Wunderground v.1.15,2013-05-12 09:46:00,
2013-05-12 11:51:00,53.4,42.3,29.91,SW,221,7.0,7.0,66,0.00,,,0.04,241,Wunderground v.1.15,2013-05-12 09:51:00,
2013-05-12 12:01:00,52.7,42.4,29.92,WNW,283,6.0,7.0,68,0.00,,,0.04,172,Wunderground v.1.15,2013-05-12 10:01:00,
2013-05-12 12:06:00,52.3,42.4,29.92,West,281,7.0,7.0,69,0.00,,,0.04,285,Wunderground v.1.15,2013-05-12 10:06:00,
2013-05-12 12:11:00,52.0,42.9,29.92,NW,306,5.0,5.0,71,0.00,,,0.04,385,Wunderground v.1.15,2013-05-12 10:11:00,
2013-05-12 12:21:00,52.9,43.4,29.92,West,271,7.0,7.0,70,0.00,,,0.04,448,Wunderground v.1.15,2013-05-12 10:21:00,
2013-05-12 12:31:00,52.7,43.2,29.92,WNW,285,8.0,8.0,70,0.00,,,0.04,385,Wunderground v.1.15,2013-05-12 10:31:00,
2013-05-12 12:41:00,52.6,43.8,29.93,WSW,251,6.0,6.0,72,0.00,,,0.04,418,Wunderground v.1.15,2013-05-12 10:41:00,
2013-05-12 12:51:00,53.0,44.2,29.92,WNW,286,5.0,11.0,72,0.00,,,0.04,431,Wunderground v.1.15,2013-05-12 10:51:00,
2013-05-12 13:01:00,53.6,44.8,29.93,West,263,7.0,9.0,72,0.00,,,0.04,564,Wunderground v.1.15,2013-05-12 11:01:00,
2013-05-12 13:06:00,53.7,44.9,29.93,SW,221,8.0,9.0,72,0.00,,,0.04,374,Wunderground v.1.15,2013-05-12 11:06:00,
2013-05-12 13:11:00,53.7,45.2,29.93,West,268,8.0,12.0,73,0.00,,,0.04,693,Wunderground v.1.15,2013-05-12 11:11:00,
2013-05-12 13:21:00,54.3,45.1,29.93,West,278,9.0,13.0,71,0.00,,,0.04,306,Wunderground v.1.15,2013-05-12 11:21:00,
2013-05-12 13:31:00,53.9,45.1,29.93,West,275,8.0,9.0,72,0.00,,,0.04,353,Wunderground v.1.15,2013-05-12 11:31:00,
2013-05-12 13:41:00,53.9,45.4,29.93,NNW,347,6.0,8.0,73,0.00,,,0.04,353,Wunderground v.1.15,2013-05-12 11:41:00,
2013-05-12 13:51:00,53.4,44.6,29.93,NNW,331,7.0,7.0,72,0.00,,,0.04,403,Wunderground v.1.15,2013-05-12 11:51:00,
2013-05-12 14:01:00,53.6,45.9,29.93,West,279,7.0,9.0,75,0.00,,,0.04,399,Wunderground v.1.15,2013-05-12 12:01:00,
2013-05-12 14:06:00,53.7,46.0,29.93,West,266,9.0,10.0,75,0.00,,,0.04,1005,Wunderground v.1.15,2013-05-12 12:06:00,
2013-05-12 14:11:00,54.0,46.3,29.94,West,281,9.0,9.0,75,0.00,,,0.04,338,Wunderground v.1.15,2013-05-12 12:11:00,
2013-05-12 14:21:00,53.6,45.5,29.94,NW,325,8.0,8.0,74,0.00,,,0.04,248,Wunderground v.1.15,2013-05-12 12:21:00,
2013-05-12 14:31:00,53.2,45.8,29.94,WSW,250,7.0,10.0,76,0.00,,,0.04,476,Wunderground v.1.15,2013-05-12 12:31:00,
2013-05-12 14:41:00,53.4,46.0,29.95,West,270,9.0,15.0,76,0.00,,,0.04,410,Wunderground v.1.15,2013-05-12 12:41:00,
2013-05-12 14:51:00,53.6,45.9,29.95,WNW,302,7.0,7.0,75,0.00,,,0.04,181,Wunderground v.1.15,2013-05-12 12:51:00,
2013-05-12 15:01:00,53.2,46.2,29.95,West,280,5.0,6.0,77,0.00,,,0.04,316,Wunderground v.1.15,2013-05-12 13:01:00,
2013-05-12 15:06:00,53.3,46.6,29.95,West,264,6.0,7.0,78,0.00,,,0.04,290,Wunderground v.1.15,2013-05-12 13:06:00,
2013-05-12 15:11:00,53.2,46.5,29.95,WNW,303,6.0,6.0,78,0.00,,,0.04,345,Wunderground v.1.15,2013-05-12 13:11:00,
2013-05-12 15:21:00,53.3,47.0,29.95,WNW,290,7.0,7.0,79,0.00,,,0.04,371,Wunderground v.1.15,2013-05-12 13:21:00,
2013-05-12 15:31:00,53.4,46.7,29.95,West,272,8.0,13.0,78,0.00,,,0.04,199,Wunderground v.1.15,2013-05-12 13:31:00,
2013-05-12 15:41:00,52.7,46.0,29.95,WNW,284,9.0,11.0,78,0.00,,,0.04,116,Wunderground v.1.15,2013-05-12 13:41:00,
2013-05-12 15:51:00,52.1,45.8,29.96,NW,311,9.0,9.0,79,0.00,,,0.04,181,Wunderground v.1.15,2013-05-12 13:51:00,
2013-05-12 15:56:00,52.0,45.7,29.96,NW,323,8.0,9.0,79,0.00,,,0.04,141,Wunderground v.1.15,2013-05-12 13:56:00,
2013-05-12 16:06:00,51.8,45.8,29.96,West,275,6.0,8.0,80,0.00,,,0.04,91,Wunderground v.1.15,2013-05-12 14:06:00,
2013-05-12 16:11:00,51.7,46.1,29.96,NW,312,7.0,7.0,81,0.00,,,0.04,95,Wunderground v.1.15,2013-05-12 14:11:00,
2013-05-12 16:21:00,51.5,45.5,29.96,West,270,6.0,8.0,80,0.00,,,0.04,88,Wunderground v.1.15,2013-05-12 14:21:00,
2013-05-12 16:31:00,51.5,45.2,29.96,WNW,285,7.0,7.0,79,0.00,,,0.04,120,Wunderground v.1.15,2013-05-12 14:31:00,
2013-05-12 16:41:00,51.8,45.5,29.97,West,269,7.0,13.0,79,0.00,,,0.04,111,Wunderground v.1.15,2013-05-12 14:41:00,
2013-05-12 16:46:00,51.8,45.2,29.96,West,274,9.0,13.0,78,0.00,,,0.04,128,Wunderground v.1.15,2013-05-12 14:46:00,
2013-05-12 16:56:00,52.1,45.4,29.96,NW,308,6.0,8.0,78,0.00,,,0.04,232,Wunderground v.1.15,2013-05-12 14:56:00,
2013-05-12 17:06:00,52.9,45.2,29.96,WNW,290,8.0,11.0,75,0.00,,,0.04,288,Wunderground v.1.15,2013-05-12 15:06:00,
2013-05-12 17:11:00,53.2,45.1,29.96,West,274,10.0,10.0,74,0.00,,,0.04,329,Wunderground v.1.15,2013-05-12 15:11:00,
2013-05-12 17:21:00,54.0,44.4,29.96,West,266,9.0,16.0,70,0.00,,,0.04,383,Wunderground v.1.15,2013-05-12 15:21:00,
2013-05-12 17:31:00,54.5,44.2,29.96,NW,309,9.0,9.0,68,0.00,,,0.04,330,Wunderground v.1.15,2013-05-12 15:31:00,
2013-05-12 17:41:00,54.6,44.2,29.96,WSW,257,7.0,7.0,68,0.00,,,0.04,227,Wunderground v.1.15,2013-05-12 15:41:00,
2013-05-12 17:51:00,54.5,44.2,29.96,West,269,10.0,14.0,68,0.00,,,0.04,694,Wunderground v.1.15,2013-05-12 15:51:00,
2013-05-12 17:56:00,54.5,43.4,29.96,WSW,253,10.0,14.0,66,0.00,,,0.04,237,Wunderground v.1.15,2013-05-12 15:56:00,
2013-05-12 18:01:00,54.3,44.0,29.96,WSW,249,11.0,11.0,68,0.00,,,0.04,179,Wunderground v.1.15,2013-05-12 16:01:00,
2013-05-12 18:11:00,54.0,43.3,29.96,WNW,297,9.0,9.0,67,0.00,,,0.04,137,Wunderground v.1.15,2013-05-12 16:11:00,
2013-05-12 18:21:00,54.2,43.5,29.96,West,274,9.0,9.0,67,0.00,,,0.04,415,Wunderground v.1.15,2013-05-12 16:21:00,
2013-05-12 18:31:00,54.5,42.2,29.95,WSW,258,9.0,11.0,63,0.00,,,0.04,146,Wunderground v.1.15,2013-05-12 16:31:00,
2013-05-12 18:41:00,54.2,41.5,29.95,WSW,238,8.0,8.0,62,0.00,,,0.04,190,Wunderground v.1.15,2013-05-12 16:41:00,
2013-05-12 18:51:00,54.0,40.4,29.95,WSW,249,10.0,11.0,60,0.00,,,0.04,163,Wunderground v.1.15,2013-05-12 16:51:00,
2013-05-12 18:56:00,53.9,39.9,29.96,WSW,245,10.0,11.0,59,0.00,,,0.04,174,Wunderground v.1.15,2013-05-12 16:56:00,
2013-05-12 19:06:00,53.6,40.0,29.95,West,264,10.0,12.0,60,0.00,,,0.04,162,Wunderground v.1.15,2013-05-12 17:06:00,
2013-05-12 19:16:00,53.6,40.5,29.95,WSW,255,11.0,11.0,61,0.00,,,0.04,107,Wunderground v.1.15,2013-05-12 17:16:00,
2013-05-12 19:21:00,53.6,40.0,29.95,West,272,10.0,10.0,60,0.00,,,0.04,121,Wunderground v.1.15,2013-05-12 17:21:00,
2013-05-12 19:31:00,53.6,40.0,29.95,SW,228,10.0,10.0,60,0.00,,,0.04,107,Wunderground v.1.15,2013-05-12 17:31:00,
2013-05-12 19:41:00,53.6,40.5,29.95,WNW,285,9.0,10.0,61,0.00,,,0.04,77,Wunderground v.1.15,2013-05-12 17:41:00,
2013-05-12 19:51:00,53.4,40.7,29.95,WSW,245,9.0,9.0,62,0.00,,,0.04,67,Wunderground v.1.15,2013-05-12 17:51:00,
2013-05-12 20:01:00,53.3,41.0,29.95,West,266,7.0,10.0,63,0.00,,,0.04,69,Wunderground v.1.15,2013-05-12 18:01:00,
2013-05-12 20:06:00,53.4,41.5,29.95,West,276,6.0,10.0,64,0.00,,,0.04,62,Wunderground v.1.15,2013-05-12 18:06:00,
2013-05-12 20:11:00,53.3,41.4,29.95,South,191,4.0,6.0,64,0.00,,,0.04,53,Wunderground v.1.15,2013-05-12 18:11:00,
2013-05-12 20:16:00,53.2,41.3,29.95,West,262,5.0,7.0,64,0.00,,,0.04,35,Wunderground v.1.15,2013-05-12 18:16:00,
2013-05-12 20:21:00,53.2,41.7,29.95,SW,228,6.0,8.0,65,0.00,,,0.04,28,Wunderground v.1.15,2013-05-12 18:21:00,
2013-05-12 20:31:00,53.0,41.5,29.95,SW,231,7.0,7.0,65,0.00,,,0.04,30,Wunderground v.1.15,2013-05-12 18:31:00,
2013-05-12 20:36:00,52.9,42.2,29.95,West,278,6.0,7.0,67,0.00,,,0.04,35,Wunderground v.1.15,2013-05-12 18:36:00,
2013-05-12 20:41:00,52.9,42.6,29.95,WSW,252,5.0,6.0,68,0.00,,,0.04,28,Wunderground v.1.15,2013-05-12 18:41:00,
2013-05-12 20:51:00,52.7,42.4,29.95,WNW,285,7.0,13.0,68,0.00,,,0.04,14,Wunderground v.1.15,2013-05-12 18:51:00,
2013-05-12 21:01:00,52.6,43.1,29.95,West,262,8.0,10.0,70,0.00,,,0.04,14,Wunderground v.1.15,2013-05-12 19:01:00,
2013-05-12 21:06:00,52.4,42.9,29.95,SW,214,6.0,10.0,70,0.00,,,0.04,11,Wunderground v.1.15,2013-05-12 19:06:00,
2013-05-12 21:11:00,52.4,43.3,29.95,SW,219,6.0,10.0,71,0.00,,,0.04,7,Wunderground v.1.15,2013-05-12 19:11:00,
2013-05-12 21:21:00,52.3,43.2,29.95,WSW,248,8.0,8.0,71,0.00,,,0.04,0,Wunderground v.1.15,2013-05-12 19:21:00,
2013-05-12 21:31:00,52.3,43.5,29.95,West,263,8.0,8.0,72,0.00,,,0.04,0,Wunderground v.1.15,2013-05-12 19:31:00,
2013-05-12 21:41:00,52.1,43.3,29.95,SW,221,8.0,8.0,72,0.00,,,0.04,0,Wunderground v.1.15,2013-05-12 19:41:00,
2013-05-12 21:51:00,52.1,42.2,29.95,WSW,238,10.0,11.0,69,0.00,,,0.04,0,Wunderground v.1.15,2013-05-12 19:51:00,
2013-05-12 22:01:00,52.1,42.6,29.95,SW,221,12.0,12.0,70,0.00,,,0.04,0,Wunderground v.1.15,2013-05-12 20:01:00,
2013-05-12 22:06:00,52.0,42.9,29.95,WSW,243,12.0,12.0,71,0.00,,,0.04,0,Wunderground v.1.15,2013-05-12 20:06:00,
2013-05-12 22:11:00,51.7,43.0,29.95,South,191,11.0,17.0,72,0.00,,,0.04,0,Wunderground v.1.15,2013-05-12 20:11:00,
2013-05-12 22:21:00,51.4,42.7,29.95,WSW,253,10.0,10.0,72,0.00,,,0.04,0,Wunderground v.1.15,2013-05-12 20:21:00,
2013-05-12 22:31:00,50.5,42.2,29.95,SSW,205,11.0,11.0,73,0.00,,,0.04,0,Wunderground v.1.15,2013-05-12 20:31:00,
2013-05-12 22:41:00,49.6,42.7,29.95,West,273,9.0,9.0,77,0.00,,,0.04,0,Wunderground v.1.15,2013-05-12 20:41:00,
2013-05-12 22:46:00,49.3,43.1,29.95,SSW,210,8.0,13.0,79,0.00,,,0.04,0,Wunderground v.1.15,2013-05-12 20:46:00,
2013-05-12 22:56:00,48.7,42.8,29.95,WSW,246,8.0,8.0,80,0.00,,,0.04,0,Wunderground v.1.15,2013-05-12 20:56:00,
2013-05-12 23:01:00,48.6,43.4,29.95,WSW,250,7.0,7.0,82,0.00,,,0.04,0,Wunderground v.1.15,2013-05-12 21:01:00,
2013-05-12 23:06:00,48.3,43.4,29.95,SSW,203,7.0,12.0,83,0.00,,,0.05,0,Wunderground v.1.15,2013-05-12 21:06:00,
2013-05-12 23:11:00,48.0,43.4,29.95,South,176,8.0,8.0,84,0.00,,,0.05,0,Wunderground v.1.15,2013-05-12 21:11:00,
2013-05-12 23:21:00,47.5,43.5,29.94,SW,217,6.0,9.0,86,0.04,,,0.06,0,Wunderground v.1.15,2013-05-12 21:21:00,
2013-05-12 23:31:00,47.2,43.5,29.93,SSW,196,7.0,7.0,87,0.04,,,0.06,0,Wunderground v.1.15,2013-05-12 21:31:00,
2013-05-12 23:41:00,47.1,43.7,29.93,SSW,206,5.0,5.0,88,0.00,,,0.06,0,Wunderground v.1.15,2013-05-12 21:41:00,
2013-05-12 23:51:00,46.9,43.8,29.93,South,178,7.0,10.0,89,0.05,,,0.07,0,Wunderground v.1.15,2013-05-12 21:51:00,